createdAt,value
2018-06-16T00:00:47.866Z,92.70
2018-06-16T00:05:51.712Z,92.80
2018-06-16T00:10:55.008Z,93.00
2018-06-16T00:15:58.267Z,93.90
2018-06-16T00:21:01.603Z,94.10
2018-06-16T00:26:04.972Z,94.40
2018-06-16T00:31:08.325Z,94.40
2018-06-16T00:36:11.563Z,94.90
2018-06-16T00:41:14.827Z,95.10
2018-06-16T00:46:18.051Z,95.20
2018-06-16T00:51:21.330Z,95.80
2018-06-16T00:56:24.618Z,96.30
2018-06-16T01:06:30.892Z,97.50
2018-06-16T01:11:34.151Z,97.60
2018-06-16T01:16:37.409Z,97.00
2018-06-16T01:21:40.719Z,97.20
2018-06-16T01:26:43.985Z,96.80
2018-06-16T01:31:47.246Z,96.40
2018-06-16T01:36:50.512Z,97.90
2018-06-16T01:41:53.781Z,98.20
2018-06-16T01:46:57.082Z,98.60
2018-06-16T01:52:00.360Z,98.60
2018-06-16T01:57:03.626Z,98.50
2018-06-16T02:02:06.902Z,99.10
2018-06-16T02:07:10.159Z,99.30
2018-06-16T02:17:16.908Z,99.20
2018-06-16T02:22:20.175Z,99.20
2018-06-16T02:27:23.435Z,99.60
2018-06-16T02:32:27.215Z,99.90
2018-06-16T02:37:30.477Z,99.90
2018-06-16T02:42:33.748Z,99.90
2018-06-16T02:47:37.054Z,99.80
2018-06-16T02:52:40.350Z,99.90
2018-06-16T02:57:43.663Z,99.90
2018-06-16T03:02:46.937Z,99.90
2018-06-16T03:07:50.211Z,99.90
2018-06-16T03:12:53.486Z,99.90
2018-06-16T03:17:56.774Z,99.90
2018-06-16T03:23:00.154Z,99.90
2018-06-16T03:28:03.403Z,99.90
2018-06-16T03:33:06.708Z,99.90
2018-06-16T03:38:09.990Z,99.90
2018-06-16T03:43:13.275Z,99.90
2018-06-16T03:48:16.532Z,99.90
2018-06-16T03:53:19.811Z,99.90
2018-06-16T03:58:23.128Z,99.90
2018-06-16T04:03:26.402Z,99.90
2018-06-16T04:08:29.678Z,99.90
2018-06-16T04:13:33.042Z,99.90
2018-06-16T04:18:36.470Z,99.90
2018-06-16T04:23:39.780Z,99.90
2018-06-16T04:28:43.058Z,99.90
2018-06-16T04:33:46.425Z,99.90
2018-06-16T04:38:49.692Z,99.90
2018-06-16T04:43:52.973Z,99.90
2018-06-16T04:48:56.268Z,99.90
2018-06-16T04:53:59.579Z,99.90
2018-06-16T04:59:02.832Z,99.90
2018-06-16T05:04:06.093Z,99.90
2018-06-16T05:09:11.040Z,99.90
2018-06-16T05:14:14.280Z,97.80
2018-06-16T05:19:17.551Z,97.00
2018-06-16T05:24:20.824Z,96.70
2018-06-16T05:29:24.101Z,97.10
2018-06-16T05:34:27.378Z,95.30
2018-06-16T05:39:30.749Z,94.90
2018-06-16T05:49:37.047Z,92.00
2018-06-16T05:54:40.672Z,91.40
2018-06-16T05:59:43.941Z,88.40
2018-06-16T06:04:47.205Z,89.90
2018-06-16T06:09:50.529Z,87.20
2018-06-16T06:14:53.820Z,88.90
2018-06-16T06:19:57.115Z,83.20
2018-06-16T06:25:00.694Z,80.70
2018-06-16T06:30:03.974Z,78.00
2018-06-16T06:35:07.235Z,83.70
2018-06-16T06:40:10.584Z,68.80
2018-06-16T06:45:14.130Z,63.90
2018-06-16T06:55:20.457Z,66.50
2018-06-16T07:00:23.704Z,69.10
2018-06-16T07:05:26.973Z,66.70
2018-06-16T07:15:33.573Z,69.70
2018-06-16T07:20:36.845Z,63.10
2018-06-16T07:25:40.125Z,61.20
2018-06-16T07:30:43.450Z,62.30
2018-06-16T07:35:46.713Z,60.70
2018-06-16T07:40:51.255Z,57.30
2018-06-16T07:45:54.578Z,56.90
2018-06-16T07:50:57.960Z,60.10
2018-06-16T07:56:01.234Z,58.30
2018-06-16T08:01:04.508Z,54.50
2018-06-16T08:11:10.825Z,53.70
2018-06-16T08:21:17.817Z,53.40
2018-06-16T08:26:21.208Z,53.40
2018-06-16T08:31:25.123Z,50.00
2018-06-16T08:36:28.439Z,51.50
2018-06-16T08:41:31.733Z,51.20
2018-06-16T08:51:38.901Z,47.60
2018-06-16T08:56:42.446Z,47.70
2018-06-16T09:01:45.784Z,46.80
2018-06-16T09:11:52.187Z,44.70
2018-06-16T09:16:57.125Z,42.80
2018-06-16T09:22:00.497Z,41.20
2018-06-16T09:27:03.769Z,37.80
2018-06-16T09:32:07.041Z,39.20
2018-06-16T09:37:10.353Z,39.50
2018-06-16T09:42:13.604Z,36.10
2018-06-16T09:47:16.925Z,38.80
2018-06-16T10:02:26.327Z,36.80
2018-06-16T10:07:29.797Z,37.40
2018-06-16T10:12:33.180Z,30.70
2018-06-16T10:17:39.493Z,30.40
2018-06-16T10:22:46.461Z,29.60
2018-06-16T10:27:49.964Z,28.90
2018-06-16T10:32:53.313Z,30.30
2018-06-16T10:37:56.716Z,30.60
2018-06-16T10:43:00.192Z,31.10
2018-06-16T10:48:04.638Z,28.20
2018-06-16T10:53:07.969Z,27.90
2018-06-16T10:58:12.085Z,27.90
2018-06-16T11:13:22.141Z,28.80
2018-06-16T11:18:25.400Z,27.50
2018-06-16T11:23:28.696Z,30.40
2018-06-16T11:28:32.014Z,34.00
2018-06-16T11:33:35.613Z,30.70
2018-06-16T11:44:18.360Z,26.70
2018-06-16T11:54:27.960Z,28.10
2018-06-16T11:59:31.328Z,27.70
2018-06-16T12:04:34.581Z,26.90
2018-06-16T12:09:38.024Z,27.60
2018-06-16T12:14:42.493Z,29.40
2018-06-16T12:19:48.694Z,27.70
2018-06-16T12:24:56.164Z,24.70
2018-06-16T12:30:06.303Z,26.90
2018-06-16T12:35:09.645Z,26.30
2018-06-16T12:40:13.242Z,25.40
2018-06-16T12:45:16.528Z,29.00
2018-06-16T12:50:19.904Z,27.80
2018-06-16T12:55:23.197Z,27.50
2018-06-16T13:00:26.444Z,24.90
2018-06-16T13:05:29.799Z,24.10
2018-06-16T13:10:33.129Z,23.70
2018-06-16T13:15:36.397Z,23.80
2018-06-16T13:20:39.668Z,25.60
2018-06-16T13:25:42.962Z,24.80
2018-06-16T13:30:46.334Z,24.40
2018-06-16T13:35:49.757Z,24.90
2018-06-16T13:40:53.608Z,25.70
2018-06-16T13:45:57.122Z,25.40
2018-06-16T13:51:00.510Z,25.20
2018-06-16T13:56:03.894Z,24.00
2018-06-16T14:01:07.537Z,23.00
2018-06-16T14:06:11.010Z,24.90
2018-06-16T14:11:14.282Z,26.30
2018-06-16T14:16:19.476Z,24.10
2018-06-16T14:21:24.012Z,24.80
2018-06-16T14:26:27.272Z,27.50
2018-06-16T14:31:30.529Z,27.40
2018-06-16T14:36:33.809Z,27.40
2018-06-16T14:41:37.144Z,28.20
2018-06-16T14:46:40.431Z,28.30
2018-06-16T14:51:43.741Z,28.90
2018-06-16T14:56:47.003Z,28.50
2018-06-16T15:01:50.249Z,31.50
2018-06-16T15:06:53.592Z,29.40
2018-06-16T15:11:57.157Z,29.70
2018-06-16T15:17:00.882Z,28.50
2018-06-16T15:22:04.175Z,27.40
2018-06-16T15:27:08.050Z,28.80
2018-06-16T15:32:11.410Z,30.00
2018-06-16T15:37:15.078Z,30.00
2018-06-16T15:42:18.688Z,30.90
2018-06-16T15:47:22.053Z,30.00
2018-06-16T15:57:28.603Z,31.60
2018-06-16T16:02:31.865Z,32.80
2018-06-16T16:07:35.180Z,32.60
2018-06-16T16:12:38.643Z,33.50
2018-06-16T16:17:41.899Z,34.20
2018-06-16T16:22:45.202Z,33.40
2018-06-16T16:27:48.470Z,33.70
2018-06-16T16:37:54.732Z,35.20
2018-06-16T16:42:57.992Z,35.60
2018-06-16T16:48:01.281Z,36.40
2018-06-16T16:53:04.694Z,35.60
2018-06-16T17:03:11.861Z,35.30
2018-06-16T17:08:15.120Z,36.70
2018-06-16T17:13:18.596Z,37.40
2018-06-16T17:18:21.891Z,37.50
2018-06-16T17:23:25.158Z,35.00
2018-06-16T17:28:28.468Z,39.00
2018-06-16T17:33:31.753Z,39.50
2018-06-16T17:38:35.050Z,39.70
2018-06-16T17:43:38.320Z,39.70
2018-06-16T17:48:41.633Z,40.70
2018-06-16T17:53:44.896Z,40.50
2018-06-16T17:58:48.156Z,40.50
2018-06-16T18:03:51.440Z,41.70
2018-06-16T18:08:54.747Z,41.00
2018-06-16T18:13:58.151Z,41.60
2018-06-16T18:19:01.444Z,43.40
2018-06-16T18:24:04.906Z,42.30
2018-06-16T18:29:08.277Z,42.80
2018-06-16T18:34:11.778Z,43.50
2018-06-16T18:39:15.696Z,44.10
2018-06-16T18:44:18.964Z,45.20
2018-06-16T18:49:23.220Z,47.00
2018-06-16T18:54:26.512Z,47.80
2018-06-16T18:59:30.021Z,49.30
2018-06-16T19:04:33.309Z,53.40
2018-06-16T19:09:36.933Z,54.70
2018-06-16T19:14:40.222Z,55.30
2018-06-16T19:19:43.518Z,54.90
2018-06-16T19:24:47.178Z,56.10
2018-06-16T19:29:50.608Z,57.30
2018-06-16T19:34:53.889Z,58.40
2018-06-16T19:39:57.162Z,59.30
2018-06-16T19:45:00.603Z,57.00
2018-06-16T19:50:04.190Z,57.70
2018-06-16T19:55:07.827Z,58.90
2018-06-16T20:00:11.274Z,59.40
2018-06-16T20:05:14.612Z,61.00
2018-06-16T20:10:17.870Z,62.50
2018-06-16T20:25:27.121Z,62.60
2018-06-16T20:30:30.561Z,62.80
2018-06-16T20:35:34.017Z,60.60
2018-06-16T20:40:37.259Z,61.20
2018-06-16T20:45:40.515Z,61.80
2018-06-16T20:50:43.876Z,63.50
2018-06-16T20:55:47.165Z,63.70
2018-06-16T21:00:50.420Z,63.30
2018-06-16T21:05:53.697Z,63.80
2018-06-16T21:10:57.004Z,64.60
2018-06-16T21:16:00.269Z,64.60
2018-06-16T21:21:03.584Z,64.30
2018-06-16T21:26:06.901Z,62.50
2018-06-16T21:31:10.185Z,64.50
2018-06-16T21:36:13.460Z,64.20
2018-06-16T21:41:16.716Z,63.90
2018-06-16T21:46:20.059Z,66.70
2018-06-16T21:51:23.334Z,72.40
2018-06-16T21:56:26.619Z,76.70
2018-06-16T22:01:31.035Z,80.60
2018-06-16T22:06:34.627Z,83.30
2018-06-16T22:11:37.905Z,82.40
2018-06-16T22:16:41.205Z,80.30
2018-06-16T22:21:44.480Z,76.70
2018-06-16T22:26:47.799Z,75.70
2018-06-16T22:31:51.056Z,75.00
2018-06-16T22:36:54.345Z,75.00
2018-06-16T22:41:57.608Z,75.30
2018-06-16T22:52:03.969Z,76.00
2018-06-16T22:57:07.387Z,77.00
2018-06-16T23:02:10.645Z,75.70
2018-06-16T23:07:13.957Z,76.20
2018-06-16T23:12:17.181Z,81.30
2018-06-16T23:17:20.544Z,83.50
2018-06-16T23:22:23.776Z,84.70
2018-06-16T23:27:27.068Z,84.50
2018-06-16T23:32:30.319Z,86.60
2018-06-16T23:37:33.728Z,87.20
2018-06-16T23:42:36.970Z,86.30
2018-06-16T23:47:40.258Z,89.60
2018-06-16T23:52:43.548Z,90.60
